createdAt,value
2022-08-22T00:00:15.690Z,38.46
2022-08-22T00:02:55.439Z,41.01
2022-08-22T00:03:29.206Z,38.60
2022-08-22T00:06:30.968Z,38.76
2022-08-22T00:10:01.449Z,38.70
2022-08-22T00:13:07.408Z,38.79
2022-08-22T00:16:14.652Z,38.70
2022-08-22T00:19:45.506Z,38.84
2022-08-22T00:22:50.977Z,38.77
2022-08-22T00:26:03.667Z,38.91
2022-08-22T00:29:09.094Z,38.74
2022-08-22T00:32:27.145Z,38.75
2022-08-22T00:35:44.495Z,39.03
2022-08-22T00:39:07.152Z,38.94
2022-08-22T00:42:40.491Z,38.77
2022-08-22T00:45:52.744Z,38.96
2022-08-22T00:49:04.100Z,39.21
2022-08-22T00:52:15.000Z,38.74
2022-08-22T00:55:17.391Z,38.95
2022-08-22T00:58:38.405Z,38.90
2022-08-22T01:01:59.124Z,38.83
2022-08-22T01:05:19.912Z,38.87
2022-08-22T01:08:22.339Z,38.76
2022-08-22T01:12:15.411Z,38.61
2022-08-22T01:15:22.794Z,39.03
2022-08-22T01:18:36.781Z,38.92
2022-08-22T01:22:06.666Z,38.89
2022-08-22T01:25:37.829Z,39.32
2022-08-22T01:28:54.577Z,39.71
2022-08-22T01:32:24.703Z,39.63
2022-08-22T01:35:32.697Z,39.81
2022-08-22T01:38:53.071Z,39.52
2022-08-22T01:42:15.246Z,39.88
2022-08-22T01:45:17.297Z,40.14
2022-08-22T01:48:25.247Z,40.08
2022-08-22T01:51:45.384Z,40.14
2022-08-22T01:54:59.491Z,40.02
2022-08-22T01:58:03.886Z,40.44
2022-08-22T02:01:08.910Z,40.53
2022-08-22T02:04:29.704Z,40.66
2022-08-22T02:07:40.354Z,40.65
2022-08-22T02:10:48.385Z,40.72
2022-08-22T02:13:50.147Z,41.01
2022-08-22T02:20:12.254Z,41.27
2022-08-22T02:23:32.893Z,41.44
2022-08-22T02:26:40.519Z,41.82
2022-08-22T02:30:15.020Z,41.90
2022-08-22T02:33:35.357Z,42.15
2022-08-22T02:36:43.477Z,42.05
2022-08-22T02:39:45.471Z,42.66
2022-08-22T02:42:56.459Z,42.38
2022-08-22T02:46:12.027Z,42.46
2022-08-22T02:49:16.968Z,42.58
2022-08-22T02:52:21.849Z,42.61
2022-08-22T02:55:42.492Z,42.89
2022-08-22T02:58:50.452Z,43.16
2022-08-22T03:01:52.363Z,43.31
2022-08-22T03:04:59.880Z,43.24
2022-08-22T03:08:07.498Z,43.30
2022-08-22T03:11:27.916Z,43.47
2022-08-22T03:14:34.212Z,43.33
2022-08-22T03:18:14.923Z,43.31
2022-08-22T03:21:31.970Z,43.46
2022-08-22T03:24:37.960Z,43.39
2022-08-22T03:27:49.489Z,43.25
2022-08-22T03:30:51.825Z,43.71
2022-08-22T03:34:12.206Z,43.67
2022-08-22T03:37:40.611Z,43.62
2022-08-22T03:41:01.424Z,43.84
2022-08-22T03:44:26.043Z,43.82
2022-08-22T03:47:54.332Z,43.75
2022-08-22T03:51:16.316Z,43.82
2022-08-22T03:54:18.134Z,44.09
2022-08-22T03:57:38.773Z,44.03
2022-08-22T04:00:46.418Z,43.99
2022-08-22T04:03:54.359Z,43.97
2022-08-22T04:07:03.038Z,43.79
2022-08-22T04:10:25.835Z,44.40
2022-08-22T04:13:27.767Z,43.41
2022-08-22T04:16:45.773Z,43.18
2022-08-22T04:19:54.262Z,42.76
2022-08-22T04:23:02.235Z,43.00
2022-08-22T04:26:12.927Z,42.54
2022-08-22T04:29:18.991Z,42.31
2022-08-22T04:32:26.594Z,42.70
2022-08-22T04:35:36.506Z,41.95
2022-08-22T04:38:44.705Z,41.52
2022-08-22T04:41:49.456Z,41.04
2022-08-22T04:44:56.184Z,40.69
2022-08-22T04:48:07.937Z,40.70
2022-08-22T04:51:16.550Z,40.33
2022-08-22T04:54:37.622Z,40.27
2022-08-22T04:57:45.151Z,39.94
2022-08-22T05:00:49.740Z,39.76
2022-08-22T05:04:03.157Z,40.01
2022-08-22T05:07:07.961Z,39.10
2022-08-22T05:10:12.849Z,39.23
2022-08-22T05:13:18.332Z,39.19
2022-08-22T05:16:33.529Z,39.20
2022-08-22T05:19:38.085Z,38.76
2022-08-22T05:22:45.167Z,38.43
2022-08-22T05:25:50.085Z,38.26
2022-08-22T05:29:00.316Z,38.39
2022-08-22T05:32:03.710Z,38.53
2022-08-22T05:35:05.908Z,37.81
2022-08-22T05:38:10.326Z,37.45
2022-08-22T05:41:17.484Z,37.29
2022-08-22T05:44:24.368Z,37.03
2022-08-22T05:47:29.713Z,36.46
2022-08-22T05:50:58.590Z,36.29
2022-08-22T05:54:13.810Z,35.65
2022-08-22T05:57:24.292Z,35.33
2022-08-22T06:00:28.599Z,35.21
2022-08-22T06:03:53.867Z,34.69
2022-08-22T06:07:03.826Z,34.77
2022-08-22T06:10:13.761Z,34.37
2022-08-22T06:13:15.552Z,34.34
2022-08-22T06:16:39.883Z,34.03
2022-08-22T06:19:50.855Z,33.42
2022-08-22T06:22:57.706Z,33.76
2022-08-22T06:26:00.777Z,33.16
2022-08-22T06:29:03.212Z,33.41
2022-08-22T06:32:11.650Z,32.82
2022-08-22T06:35:16.545Z,32.82
2022-08-22T06:38:19.641Z,32.65
2022-08-22T06:41:22.521Z,31.99
2022-08-22T06:44:27.281Z,32.77
2022-08-22T06:47:31.582Z,31.67
2022-08-22T06:50:35.169Z,31.44
2022-08-22T06:53:42.387Z,30.32
2022-08-22T06:56:52.646Z,29.97
2022-08-22T06:59:55.966Z,30.30
2022-08-22T07:03:00.536Z,29.80
2022-08-22T07:06:04.631Z,29.76
2022-08-22T07:09:07.320Z,29.09
2022-08-22T07:12:18.433Z,29.81
2022-08-22T07:15:23.188Z,29.96
2022-08-22T07:18:26.766Z,29.66
2022-08-22T07:21:30.914Z,29.18
2022-08-22T07:24:36.646Z,28.12
2022-08-22T07:27:44.442Z,28.67
2022-08-22T07:30:56.008Z,28.35
2022-08-22T07:34:06.846Z,27.82
2022-08-22T07:37:17.877Z,28.28
2022-08-22T07:40:25.748Z,27.97
2022-08-22T07:43:30.695Z,27.51
2022-08-22T07:46:43.683Z,26.93
2022-08-22T07:49:53.374Z,27.14
2022-08-22T07:52:59.159Z,27.16
2022-08-22T07:56:02.743Z,27.24
2022-08-22T07:59:12.924Z,26.30
2022-08-22T08:02:16.799Z,25.12
2022-08-22T08:05:20.495Z,24.50
2022-08-22T08:08:25.978Z,23.90
2022-08-22T08:11:31.032Z,24.81
2022-08-22T08:14:35.853Z,23.69
2022-08-22T08:17:38.969Z,23.51
2022-08-22T08:20:40.800Z,23.68
2022-08-22T08:23:46.669Z,23.61
2022-08-22T08:27:11.297Z,22.63
2022-08-22T08:30:17.306Z,22.41
2022-08-22T08:33:25.644Z,23.54
2022-08-22T08:36:31.663Z,21.85
2022-08-22T08:39:35.858Z,21.46
2022-08-22T08:43:37.209Z,21.85
2022-08-22T08:46:55.231Z,21.59
2022-08-22T08:50:07.277Z,21.95
2022-08-22T08:53:20.530Z,21.66
2022-08-22T08:56:50.141Z,22.12
2022-08-22T09:00:02.414Z,21.71
2022-08-22T09:03:30.565Z,22.11
2022-08-22T09:06:42.318Z,21.18
2022-08-22T09:09:52.679Z,21.37
2022-08-22T09:13:17.694Z,21.05
2022-08-22T09:16:25.634Z,20.66
2022-08-22T09:19:46.237Z,21.20
2022-08-22T09:22:58.425Z,20.53
2022-08-22T09:26:05.864Z,20.17
2022-08-22T09:29:11.663Z,19.49
2022-08-22T09:32:16.812Z,20.20
2022-08-22T09:35:24.174Z,20.26
2022-08-22T09:38:30.980Z,20.11
2022-08-22T09:41:32.936Z,19.69
2022-08-22T09:44:34.759Z,18.77
2022-08-22T09:48:07.036Z,19.68
2022-08-22T09:51:32.709Z,20.06
2022-08-22T09:54:57.325Z,20.11
2022-08-22T09:58:03.559Z,20.16
2022-08-22T10:01:24.840Z,19.73
2022-08-22T10:04:28.414Z,19.83
2022-08-22T10:07:37.021Z,19.85
2022-08-22T10:10:46.410Z,20.08
2022-08-22T10:13:57.345Z,19.95
2022-08-22T10:17:21.783Z,20.58
2022-08-22T10:20:25.100Z,20.56
2022-08-22T10:23:38.852Z,20.95
2022-08-22T10:26:48.404Z,21.32
2022-08-22T10:30:09.055Z,21.41
2022-08-22T10:33:14.459Z,21.01
2022-08-22T10:36:23.680Z,21.62
2022-08-22T10:39:34.334Z,21.23
2022-08-22T10:42:48.122Z,21.76
2022-08-22T10:46:00.040Z,21.26
2022-08-22T10:49:08.092Z,21.88
2022-08-22T10:52:16.357Z,21.21
2022-08-22T10:55:26.506Z,22.05
2022-08-22T10:58:31.729Z,21.77
2022-08-22T11:01:41.558Z,22.31
2022-08-22T11:05:02.818Z,22.34
2022-08-22T11:08:11.326Z,22.20
2022-08-22T11:11:33.044Z,22.22
2022-08-22T11:14:53.695Z,22.98
2022-08-22T11:18:02.113Z,23.14
2022-08-22T11:21:18.425Z,23.38
2022-08-22T11:24:30.029Z,23.59
2022-08-22T11:28:00.686Z,23.36
2022-08-22T11:31:07.219Z,23.63
2022-08-22T11:34:24.980Z,22.81
2022-08-22T11:37:46.191Z,22.85
2022-08-22T11:40:52.207Z,23.57
2022-08-22T11:44:09.333Z,23.26
2022-08-22T11:47:13.882Z,23.19
2022-08-22T11:50:22.721Z,23.54
2022-08-22T11:53:43.399Z,23.03
2022-08-22T11:56:50.160Z,23.48
2022-08-22T12:00:02.712Z,22.83
2022-08-22T12:03:09.352Z,22.98
2022-08-22T12:06:30.354Z,23.19
2022-08-22T12:09:43.609Z,22.79
2022-08-22T12:12:57.843Z,22.51
2022-08-22T12:16:20.113Z,22.71
2022-08-22T12:19:28.114Z,22.52
2022-08-22T12:22:48.690Z,22.68
2022-08-22T12:25:51.925Z,22.81
2022-08-22T12:29:18.195Z,22.32
2022-08-22T12:32:27.695Z,21.79
2022-08-22T12:35:49.423Z,21.82
2022-08-22T12:38:54.060Z,21.44
2022-08-22T12:42:11.268Z,21.40
2022-08-22T12:45:21.347Z,22.05
2022-08-22T12:48:44.205Z,21.19
2022-08-22T12:52:04.466Z,21.51
2022-08-22T12:55:06.679Z,20.71
2022-08-22T12:58:23.356Z,21.25
2022-08-22T13:01:33.869Z,20.59
2022-08-22T13:04:43.003Z,20.84
2022-08-22T13:07:50.529Z,20.20
2022-08-22T13:11:00.903Z,20.23
2022-08-22T13:15:36.074Z,19.87
2022-08-22T13:18:44.759Z,20.13
2022-08-22T13:21:50.812Z,19.71
2022-08-22T13:24:55.367Z,20.19
2022-08-22T13:27:59.460Z,20.15
2022-08-22T13:31:05.026Z,20.37
2022-08-22T13:34:10.438Z,19.89
2022-08-22T13:37:15.113Z,19.91
2022-08-22T13:40:29.399Z,19.89
2022-08-22T13:43:34.931Z,19.37
2022-08-22T13:46:52.963Z,19.71
2022-08-22T13:50:08.466Z,19.14
2022-08-22T13:53:19.630Z,19.16
2022-08-22T13:56:24.803Z,19.50
2022-08-22T13:59:51.708Z,18.98
2022-08-22T14:02:55.463Z,19.13
2022-08-22T14:06:32.724Z,19.08
2022-08-22T14:09:29.573Z,19.01
2022-08-22T14:12:49.953Z,19.44
2022-08-22T14:15:58.904Z,19.63
2022-08-22T14:19:09.286Z,19.15
2022-08-22T14:22:20.623Z,19.59
2022-08-22T14:25:36.204Z,19.45
2022-08-22T14:28:38.313Z,19.25
2022-08-22T14:31:40.673Z,19.25
2022-08-22T14:34:45.406Z,19.48
2022-08-22T14:37:53.203Z,19.25
2022-08-22T14:41:01.916Z,19.55
2022-08-22T14:44:28.477Z,19.88
2022-08-22T14:47:55.275Z,19.45
2022-08-22T14:51:22.804Z,19.64
2022-08-22T14:54:29.209Z,20.20
2022-08-22T14:57:34.118Z,20.32
2022-08-22T15:00:41.180Z,20.63
2022-08-22T15:03:43.144Z,20.44
2022-08-22T15:06:53.068Z,20.43
2022-08-22T15:09:58.626Z,20.67
2022-08-22T15:13:03.379Z,21.04
2022-08-22T15:16:20.743Z,21.09
2022-08-22T15:19:27.734Z,21.47
2022-08-22T15:22:29.782Z,21.00
2022-08-22T15:25:36.537Z,20.91
2022-08-22T15:28:52.606Z,21.17
2022-08-22T15:31:57.450Z,20.88
2022-08-22T15:35:09.011Z,20.65
2022-08-22T15:38:31.483Z,20.76
2022-08-22T15:41:36.600Z,20.79
2022-08-22T15:44:40.603Z,20.92
2022-08-22T15:47:49.600Z,21.16
2022-08-22T15:51:02.617Z,21.40
2022-08-22T15:54:24.454Z,21.78
2022-08-22T15:57:30.284Z,21.54
2022-08-22T16:00:35.213Z,21.95
2022-08-22T16:03:39.153Z,21.96
2022-08-22T16:06:44.460Z,21.73
2022-08-22T16:09:53.547Z,21.86
2022-08-22T16:13:13.776Z,22.27
2022-08-22T16:16:24.689Z,22.65
2022-08-22T16:19:30.465Z,23.13
2022-08-22T16:22:51.137Z,22.62
2022-08-22T16:25:53.503Z,23.20
2022-08-22T16:29:13.649Z,22.94
2022-08-22T16:32:24.073Z,24.00
2022-08-22T16:35:44.989Z,23.90
2022-08-22T16:38:49.401Z,23.64
2022-08-22T16:41:53.301Z,24.37
2022-08-22T16:44:58.152Z,24.00
2022-08-22T16:48:13.811Z,24.40
2022-08-22T16:51:21.302Z,24.87
2022-08-22T16:54:43.954Z,24.74
2022-08-22T16:58:04.996Z,25.06
2022-08-22T17:01:16.683Z,25.77
2022-08-22T17:04:18.457Z,26.41
2022-08-22T17:07:23.582Z,26.18
2022-08-22T17:10:49.358Z,26.34
2022-08-22T17:13:54.929Z,26.24
2022-08-22T17:17:15.992Z,26.68
2022-08-22T17:20:20.804Z,27.00
2022-08-22T17:23:40.747Z,26.93
2022-08-22T17:26:46.849Z,27.23
2022-08-22T17:29:58.817Z,27.25
2022-08-22T17:33:14.352Z,27.55
2022-08-22T17:36:26.818Z,28.31
2022-08-22T17:39:55.631Z,28.14
2022-08-22T17:43:10.314Z,28.14
2022-08-22T17:46:33.309Z,28.42
2022-08-22T17:49:41.237Z,28.40
2022-08-22T17:52:55.200Z,28.67
2022-08-22T17:56:00.440Z,28.58
2022-08-22T17:59:24.369Z,29.13
2022-08-22T18:02:35.145Z,28.68
2022-08-22T18:05:49.812Z,28.99
2022-08-22T18:09:15.211Z,29.06
2022-08-22T18:12:17.087Z,29.34
2022-08-22T18:15:48.873Z,29.26
2022-08-22T18:19:12.256Z,29.47
2022-08-22T18:22:53.047Z,29.86
2022-08-22T18:26:12.301Z,29.64
2022-08-22T18:29:21.339Z,29.78
2022-08-22T18:32:47.798Z,29.92
2022-08-22T18:35:58.845Z,30.11
2022-08-22T18:39:03.710Z,30.18
2022-08-22T18:42:05.739Z,29.73
2022-08-22T18:45:18.686Z,30.14
2022-08-22T18:48:27.066Z,30.33
2022-08-22T18:51:32.597Z,30.35
2022-08-22T18:54:46.328Z,30.36
2022-08-22T18:58:10.021Z,30.62
2022-08-22T19:01:20.663Z,30.73
2022-08-22T19:04:33.052Z,30.49
2022-08-22T19:07:55.507Z,30.85
2022-08-22T19:11:05.518Z,30.90
2022-08-22T19:14:18.371Z,30.78
2022-08-22T19:17:20.933Z,30.83
2022-08-22T19:20:46.934Z,30.75
2022-08-22T19:23:50.924Z,30.85
2022-08-22T19:27:12.545Z,31.18
2022-08-22T19:30:33.063Z,31.06
2022-08-22T19:33:43.101Z,31.96
2022-08-22T19:37:08.371Z,31.50
2022-08-22T19:40:12.137Z,31.43
2022-08-22T19:43:29.598Z,31.43
2022-08-22T19:46:36.810Z,31.29
2022-08-22T19:49:42.997Z,31.38
2022-08-22T19:52:57.978Z,31.29
2022-08-22T19:56:04.927Z,31.42
2022-08-22T19:59:26.445Z,31.48
2022-08-22T20:02:47.405Z,31.57
2022-08-22T20:06:02.154Z,31.78
2022-08-22T20:09:17.069Z,32.06
2022-08-22T20:12:22.160Z,32.01
2022-08-22T20:15:28.033Z,31.89
2022-08-22T20:18:53.517Z,32.20
2022-08-22T20:22:03.817Z,32.03
2022-08-22T20:25:16.863Z,31.93
2022-08-22T20:28:47.414Z,32.35
2022-08-22T20:31:55.548Z,31.95
2022-08-22T20:35:03.110Z,32.05
2022-08-22T20:38:11.700Z,32.60
2022-08-22T20:41:32.268Z,32.22
2022-08-22T20:44:41.795Z,32.34
2022-08-22T20:47:49.559Z,32.16
2022-08-22T20:50:51.631Z,32.51
2022-08-22T20:53:58.113Z,32.57
2022-08-22T20:57:02.120Z,32.68
2022-08-22T21:00:12.506Z,32.57
2022-08-22T21:03:32.828Z,32.79
2022-08-22T21:06:36.106Z,32.85
2022-08-22T21:09:56.858Z,32.86
2022-08-22T21:13:12.138Z,32.88
2022-08-22T21:16:16.073Z,32.99
2022-08-22T21:19:25.353Z,33.22
2022-08-22T21:22:29.069Z,33.23
2022-08-22T21:25:32.044Z,32.81
2022-08-22T21:28:35.705Z,33.05
2022-08-22T21:31:51.517Z,33.28
2022-08-22T21:34:53.925Z,33.37
2022-08-22T21:37:56.246Z,33.71
2022-08-22T21:41:02.121Z,33.39
2022-08-22T21:44:19.313Z,33.68
2022-08-22T21:47:30.794Z,33.67
2022-08-22T21:50:41.349Z,33.63
2022-08-22T21:53:43.106Z,33.91
2022-08-22T21:56:44.952Z,34.41
2022-08-22T21:59:58.859Z,34.09
2022-08-22T22:03:02.906Z,34.01
2022-08-22T22:06:05.730Z,34.19
2022-08-22T22:09:09.962Z,34.47
2022-08-22T22:12:13.779Z,34.30
2022-08-22T22:15:17.628Z,34.48
2022-08-22T22:18:24.447Z,34.38
2022-08-22T22:21:26.343Z,34.40
2022-08-22T22:24:28.075Z,34.62
2022-08-22T22:27:29.912Z,34.43
2022-08-22T22:30:31.766Z,34.32
2022-08-22T22:33:35.620Z,34.46
2022-08-22T22:36:37.592Z,34.41
2022-08-22T22:39:39.394Z,34.61
2022-08-22T22:42:41.489Z,34.79
2022-08-22T22:45:43.303Z,34.70
2022-08-22T22:48:45.212Z,34.85
2022-08-22T22:51:47.039Z,34.83
2022-08-22T22:54:48.767Z,34.94
2022-08-22T22:57:58.928Z,35.11
2022-08-22T23:01:21.444Z,35.28
2022-08-22T23:04:23.388Z,35.27
2022-08-22T23:07:25.839Z,35.13
2022-08-22T23:10:28.534Z,35.28
2022-08-22T23:13:30.270Z,35.64
2022-08-22T23:16:39.327Z,35.88
2022-08-22T23:19:41.490Z,36.03
2022-08-22T23:22:45.420Z,35.91
2022-08-22T23:25:47.210Z,36.14
2022-08-22T23:28:49.267Z,36.23
2022-08-22T23:31:55.669Z,36.46
2022-08-22T23:34:57.781Z,36.42
2022-08-22T23:37:59.655Z,36.48
2022-08-22T23:41:09.570Z,36.71
2022-08-22T23:44:13.699Z,36.87
2022-08-22T23:47:15.977Z,36.76
2022-08-22T23:50:17.776Z,36.99
2022-08-22T23:53:19.730Z,36.93
2022-08-22T23:56:32.670Z,37.10
2022-08-22T23:59:35.829Z,37.14
